createdAt,value
2023-11-10T00:01:42.200Z,1.50
2023-11-10T00:04:09.040Z,1.37
2023-11-10T00:06:36.399Z,1.60
2023-11-10T00:09:06.585Z,1.30
2023-11-10T00:11:33.249Z,1.40
2023-11-10T00:14:11.009Z,1.33
2023-11-10T00:16:45.085Z,1.40
2023-11-10T00:19:20.106Z,1.57
2023-11-10T00:21:50.907Z,1.53
2023-11-10T00:24:18.090Z,1.50
2023-11-10T00:26:51.355Z,2.00
2023-11-10T00:29:18.153Z,1.40
2023-11-10T00:31:46.600Z,1.70
2023-11-10T00:34:23.331Z,1.50
2023-11-10T00:36:50.069Z,1.70
2023-11-10T00:39:18.484Z,1.60
2023-11-10T00:41:54.096Z,2.00
2023-11-10T00:44:20.911Z,1.70
2023-11-10T00:46:47.531Z,1.70
2023-11-10T00:49:22.613Z,1.60
2023-11-10T00:51:49.589Z,1.70
2023-11-10T00:54:19.670Z,1.50
2023-11-10T00:56:56.483Z,1.70
2023-11-10T00:59:39.309Z,2.00
2023-11-10T01:02:06.005Z,1.60
2023-11-10T01:04:36.021Z,2.13
2023-11-10T01:07:13.207Z,1.70
2023-11-10T01:09:40.021Z,1.70
2023-11-10T01:12:07.745Z,2.03
2023-11-10T01:15:00.038Z,2.00
2023-11-10T01:17:27.000Z,1.90
2023-11-10T01:19:54.052Z,1.87
2023-11-10T01:22:20.709Z,1.67
2023-11-10T01:24:47.371Z,1.80
2023-11-10T01:27:56.128Z,1.70
2023-11-10T01:30:28.188Z,2.07
2023-11-10T01:33:13.425Z,2.00
2023-11-10T01:35:41.052Z,1.60
2023-11-10T01:38:08.500Z,2.10
2023-11-10T01:40:42.715Z,1.73
2023-11-10T01:43:11.510Z,2.00
2023-11-10T01:45:38.575Z,1.80
2023-11-10T01:48:12.459Z,1.80
2023-11-10T01:50:40.249Z,1.87
2023-11-10T01:53:09.751Z,1.90
2023-11-10T01:55:42.084Z,2.00
2023-11-10T01:58:10.051Z,2.20
2023-11-10T02:00:38.458Z,1.63
2023-11-10T02:05:58.406Z,1.83
2023-11-10T02:08:25.248Z,1.47
2023-11-10T02:10:51.949Z,2.10
2023-11-10T02:13:28.774Z,1.80
2023-11-10T02:15:55.522Z,1.77
2023-11-10T02:18:22.281Z,2.57
2023-11-10T02:20:48.991Z,1.70
2023-11-10T02:23:16.458Z,1.67
2023-11-10T02:25:51.673Z,1.87
2023-11-10T02:28:18.973Z,1.50
2023-11-10T02:30:45.706Z,1.87
2023-11-10T02:33:21.711Z,1.80
2023-11-10T02:35:48.383Z,1.60
2023-11-10T02:38:15.332Z,1.70
2023-11-10T02:40:49.760Z,1.87
2023-11-10T02:43:34.598Z,1.90
2023-11-10T02:46:02.367Z,1.63
2023-11-10T02:48:29.778Z,1.83
2023-11-10T02:50:56.822Z,1.63
2023-11-10T02:53:23.446Z,1.40
2023-11-10T02:55:50.634Z,1.77
2023-11-10T02:58:17.467Z,1.40
2023-11-10T03:00:44.689Z,1.30
2023-11-10T03:03:12.725Z,1.40
2023-11-10T03:05:40.507Z,2.93
2023-11-10T03:08:10.440Z,1.40
2023-11-10T03:10:37.176Z,1.40
2023-11-10T03:13:04.579Z,1.37
2023-11-10T03:15:31.385Z,1.40
2023-11-10T03:17:58.215Z,1.83
2023-11-10T03:20:27.948Z,1.43
2023-11-10T03:22:55.438Z,1.40
2023-11-10T03:25:25.186Z,1.70
2023-11-10T03:27:55.345Z,1.60
2023-11-10T03:30:24.693Z,1.30
2023-11-10T03:32:55.491Z,1.20
2023-11-10T03:35:28.373Z,1.50
2023-11-10T03:37:55.274Z,1.53
2023-11-10T03:40:26.359Z,1.20
2023-11-10T03:43:18.278Z,1.30
2023-11-10T03:45:45.118Z,1.20
2023-11-10T03:48:11.842Z,1.40
2023-11-10T03:50:38.555Z,2.33
2023-11-10T03:53:05.236Z,1.30
2023-11-10T03:55:33.100Z,1.40
2023-11-10T03:58:03.991Z,1.50
2023-11-10T04:00:41.756Z,1.10
2023-11-10T04:03:13.017Z,1.23
2023-11-10T04:05:40.333Z,1.30
2023-11-10T04:08:07.057Z,1.43
2023-11-10T04:10:40.046Z,1.87
2023-11-10T04:13:06.851Z,1.50
2023-11-10T04:15:33.655Z,1.37
2023-11-10T04:18:03.741Z,1.10
2023-11-10T04:20:36.875Z,1.33
2023-11-10T04:23:03.577Z,1.23
2023-11-10T04:25:31.790Z,1.23
2023-11-10T04:28:08.345Z,1.10
2023-11-10T04:30:35.039Z,1.17
2023-11-10T04:33:02.183Z,1.30
2023-11-10T04:35:37.833Z,1.10
2023-11-10T04:38:05.246Z,1.23
2023-11-10T04:40:31.995Z,1.30
2023-11-10T04:42:58.702Z,1.60
2023-11-10T04:45:40.125Z,1.40
2023-11-10T04:48:06.986Z,1.30
2023-11-10T04:50:42.298Z,1.23
2023-11-10T04:53:09.256Z,1.50
2023-11-10T04:55:35.935Z,1.27
2023-11-10T04:58:11.829Z,1.20
2023-11-10T05:00:38.529Z,1.33
2023-11-10T05:03:07.388Z,1.30
2023-11-10T05:05:40.607Z,1.10
2023-11-10T05:08:07.419Z,1.40
2023-11-10T05:10:34.137Z,1.40
2023-11-10T05:13:00.805Z,1.10
2023-11-10T05:15:28.566Z,1.43
2023-11-10T05:18:02.235Z,1.20
2023-11-10T05:20:32.974Z,1.43
2023-11-10T05:31:23.960Z,1.20
2023-11-10T05:33:52.733Z,1.30
2023-11-10T05:36:26.929Z,1.30
2023-11-10T05:40:00.707Z,1.10
2023-11-10T05:45:45.569Z,1.50
2023-11-10T05:48:18.943Z,1.50
2023-11-10T05:51:30.953Z,1.30
2023-11-10T05:54:56.783Z,1.27
2023-11-10T05:57:24.037Z,1.40
2023-11-10T06:08:36.348Z,1.20
2023-11-10T06:11:26.389Z,1.30
2023-11-10T06:14:22.558Z,1.30
2023-11-10T06:17:09.130Z,1.70
2023-11-10T06:19:54.317Z,1.40
2023-11-10T06:22:23.746Z,1.60
2023-11-10T06:25:25.165Z,1.30
2023-11-10T06:27:58.365Z,1.10
2023-11-10T06:30:29.900Z,1.90
2023-11-10T06:33:59.497Z,1.67
2023-11-10T06:36:51.942Z,1.43
2023-11-10T06:39:43.866Z,1.47
2023-11-10T06:42:18.055Z,1.50
2023-11-10T06:45:56.923Z,1.50
2023-11-10T06:48:30.951Z,1.60
2023-11-10T07:02:35.575Z,1.60
2023-11-10T07:06:42.449Z,1.47
2023-11-10T07:10:02.142Z,1.40
2023-11-10T07:13:28.997Z,1.60
2023-11-10T07:16:21.205Z,1.60
2023-11-10T07:18:55.895Z,1.80
2023-11-10T07:25:44.821Z,1.40
2023-11-10T07:28:14.765Z,1.80
2023-11-10T07:30:41.584Z,1.43
2023-11-10T07:36:28.732Z,1.60
2023-11-10T07:39:02.746Z,1.30
2023-11-10T07:41:37.824Z,1.60
2023-11-10T07:44:56.235Z,1.50
2023-11-10T07:47:22.877Z,1.90
2023-11-10T07:49:49.620Z,1.70
2023-11-10T07:52:16.397Z,1.90
2023-11-10T07:54:57.925Z,2.10
2023-11-10T07:57:28.851Z,2.07
2023-11-10T07:59:55.651Z,2.07
2023-11-10T08:02:22.374Z,2.27
2023-11-10T08:04:49.224Z,2.10
2023-11-10T08:07:15.959Z,2.93
2023-11-10T08:09:42.691Z,1.97
2023-11-10T08:12:15.415Z,2.23
2023-11-10T08:14:42.100Z,1.80
2023-11-10T08:17:08.769Z,2.23
2023-11-10T08:19:43.626Z,2.00
2023-11-10T08:22:35.811Z,2.50
2023-11-10T08:28:10.101Z,1.83
2023-11-10T08:30:42.690Z,2.00
2023-11-10T08:33:10.282Z,2.10
2023-11-10T08:35:40.313Z,2.20
2023-11-10T08:38:13.921Z,2.17
2023-11-10T08:40:40.905Z,2.00
2023-11-10T08:43:07.550Z,2.33
2023-11-10T08:45:41.846Z,1.97
2023-11-10T08:48:08.696Z,1.50
2023-11-10T08:50:40.270Z,2.17
2023-11-10T08:54:16.163Z,2.20
2023-11-10T08:56:42.906Z,2.07
2023-11-10T08:59:10.621Z,2.20
2023-11-10T09:01:39.066Z,1.97
2023-11-10T09:04:37.457Z,2.00
2023-11-10T09:07:08.167Z,2.20
2023-11-10T09:09:40.737Z,2.10
2023-11-10T09:12:07.617Z,2.00
2023-11-10T09:15:28.535Z,2.20
2023-11-10T09:17:55.636Z,2.10
2023-11-10T09:20:40.556Z,2.30
2023-11-10T09:23:31.629Z,2.20
2023-11-10T09:26:02.339Z,2.03
2023-11-10T09:28:32.261Z,2.30
2023-11-10T09:31:00.210Z,2.00
2023-11-10T09:36:19.358Z,2.30
2023-11-10T09:38:50.718Z,2.00
2023-11-10T09:41:18.910Z,2.03
2023-11-10T09:43:49.583Z,2.10
2023-11-10T09:46:20.274Z,2.10
2023-11-10T09:48:52.653Z,2.30
2023-11-10T09:51:21.232Z,2.43
2023-11-10T09:53:51.342Z,2.40
2023-11-10T09:56:18.585Z,2.20
2023-11-10T09:59:10.007Z,2.40
2023-11-10T10:01:37.311Z,2.40
2023-11-10T10:04:05.102Z,2.40
2023-11-10T10:06:35.692Z,1.80
2023-11-10T10:09:10.742Z,2.03
2023-11-10T10:11:37.485Z,2.53
2023-11-10T10:14:09.450Z,2.00
2023-11-10T10:16:36.172Z,2.30
2023-11-10T10:19:06.322Z,2.23
2023-11-10T10:21:42.773Z,2.20
2023-11-10T10:24:09.457Z,1.73
2023-11-10T10:26:36.122Z,1.70
2023-11-10T10:29:03.742Z,1.90
2023-11-10T10:31:38.387Z,1.73
2023-11-10T10:34:07.205Z,1.90
2023-11-10T10:36:39.218Z,2.07
2023-11-10T10:39:13.092Z,2.33
2023-11-10T10:42:08.057Z,2.37
2023-11-10T10:44:43.627Z,2.10
2023-11-10T10:47:10.709Z,2.43
2023-11-10T10:50:03.670Z,2.60
2023-11-10T10:52:31.014Z,2.10
2023-11-10T10:54:58.254Z,2.30
2023-11-10T10:57:29.019Z,2.27
2023-11-10T10:59:58.328Z,2.37
2023-11-10T11:02:26.404Z,2.57
2023-11-10T11:04:54.884Z,2.33
2023-11-10T11:07:59.091Z,2.43
2023-11-10T11:10:54.306Z,2.27
2023-11-10T11:13:32.685Z,2.70
2023-11-10T11:16:27.806Z,2.40
2023-11-10T11:18:57.247Z,2.43
2023-11-10T11:21:32.370Z,2.60
2023-11-10T11:24:14.988Z,2.50
2023-11-10T11:26:42.752Z,3.10
2023-11-10T11:29:10.772Z,2.37
2023-11-10T11:31:50.229Z,2.87
2023-11-10T11:34:20.572Z,2.60
2023-11-10T11:36:57.659Z,2.60
2023-11-10T11:39:24.366Z,2.10
2023-11-10T11:41:51.979Z,2.47
2023-11-10T11:44:44.744Z,2.00
2023-11-10T11:47:12.830Z,2.07
2023-11-10T11:49:43.113Z,2.00
2023-11-10T11:52:17.131Z,1.73
2023-11-10T11:54:43.958Z,1.90
2023-11-10T11:57:11.425Z,2.30
2023-11-10T11:59:45.056Z,2.40
2023-11-10T12:02:12.277Z,2.07
2023-11-10T12:04:39.135Z,1.80
2023-11-10T12:07:16.147Z,1.50
2023-11-10T12:09:42.928Z,1.40
2023-11-10T12:12:15.203Z,1.60
2023-11-10T12:15:09.261Z,2.30
2023-11-10T12:17:36.571Z,1.40
2023-11-10T12:20:03.481Z,1.40
2023-11-10T12:22:30.461Z,1.40
2023-11-10T12:25:04.291Z,1.60
2023-11-10T12:27:34.709Z,1.40
2023-11-10T12:30:01.458Z,1.40
2023-11-10T12:32:35.395Z,1.47
2023-11-10T12:35:04.889Z,1.53
2023-11-10T12:37:33.513Z,1.53
2023-11-10T12:40:28.721Z,1.13
2023-11-10T12:42:59.840Z,1.50
2023-11-10T12:45:52.261Z,1.60
2023-11-10T12:48:19.084Z,1.33
2023-11-10T12:50:48.459Z,1.77
2023-11-10T12:53:19.217Z,1.90
2023-11-10T12:55:48.786Z,1.30
2023-11-10T12:58:16.176Z,1.43
2023-11-10T13:00:43.571Z,1.90
2023-11-10T13:03:15.382Z,1.50
2023-11-10T13:05:42.412Z,1.40
2023-11-10T13:08:09.160Z,2.20
2023-11-10T13:10:35.953Z,1.87
2023-11-10T13:13:03.060Z,1.60
2023-11-10T13:18:23.809Z,1.73
2023-11-10T13:24:03.732Z,1.53
2023-11-10T13:26:34.076Z,1.53
2023-11-10T13:29:06.273Z,1.70
2023-11-10T13:31:33.154Z,1.40
2023-11-10T13:34:27.941Z,1.63
2023-11-10T13:36:54.858Z,1.53
2023-11-10T13:39:24.071Z,1.77
2023-11-10T13:41:52.202Z,1.60
2023-11-10T13:44:19.291Z,1.60
2023-11-10T13:46:46.111Z,1.60
2023-11-10T13:49:13.440Z,1.60
2023-11-10T13:51:40.656Z,1.77
2023-11-10T13:54:16.523Z,1.57
2023-11-10T13:56:43.329Z,1.60
2023-11-10T13:59:10.762Z,2.00
2023-11-10T14:01:37.844Z,1.60
2023-11-10T14:04:08.037Z,1.50
2023-11-10T14:06:36.115Z,1.67
2023-11-10T14:09:04.188Z,1.40
2023-11-10T14:11:36.990Z,1.37
2023-11-10T14:14:03.683Z,1.77
2023-11-10T14:16:30.998Z,1.40
2023-11-10T14:18:58.038Z,1.90
2023-11-10T14:21:25.485Z,1.50
2023-11-10T14:23:55.275Z,2.47
2023-11-10T14:26:25.517Z,2.57
2023-11-10T14:28:56.325Z,1.80
2023-11-10T14:31:26.900Z,2.27
2023-11-10T14:33:56.388Z,2.10
2023-11-10T14:36:24.207Z,1.73
2023-11-10T14:38:57.005Z,1.47
2023-11-10T14:41:25.698Z,1.63
2023-11-10T14:43:53.045Z,1.50
2023-11-10T14:46:21.437Z,1.40
2023-11-10T14:48:51.316Z,1.43
2023-11-10T14:51:26.801Z,1.50
2023-11-10T14:53:59.017Z,1.77
2023-11-10T14:56:25.755Z,1.40
2023-11-10T14:58:52.475Z,1.80
2023-11-10T15:01:21.095Z,1.40
2023-11-10T15:03:49.654Z,1.60
2023-11-10T15:06:18.368Z,1.40
2023-11-10T15:08:47.830Z,1.40
2023-11-10T15:11:17.809Z,1.20
2023-11-10T15:13:47.272Z,1.50
2023-11-10T15:16:19.243Z,1.47
2023-11-10T15:18:49.608Z,1.60
2023-11-10T15:21:16.452Z,1.43
2023-11-10T15:23:50.577Z,1.60
2023-11-10T15:26:17.449Z,2.00
2023-11-10T15:29:11.198Z,1.73
2023-11-10T15:31:43.286Z,1.97
2023-11-10T15:34:19.759Z,3.30
2023-11-10T15:37:00.357Z,2.10
2023-11-10T15:39:29.144Z,2.50
2023-11-10T15:41:56.540Z,1.80
2023-11-10T15:44:23.265Z,2.30
2023-11-10T15:46:51.273Z,2.43
2023-11-10T15:49:20.448Z,2.00
2023-11-10T15:51:56.261Z,4.97
2023-11-10T15:54:37.038Z,3.40
2023-11-10T15:57:06.327Z,2.30
2023-11-10T15:59:36.089Z,3.53
2023-11-10T16:02:06.560Z,2.03
2023-11-10T16:04:36.140Z,2.10
2023-11-10T16:07:14.007Z,2.20
2023-11-10T16:09:47.089Z,2.10
2023-11-10T16:12:14.096Z,2.20
2023-11-10T16:14:41.027Z,2.70
2023-11-10T16:17:07.945Z,2.03
2023-11-10T16:19:35.208Z,2.57
2023-11-10T16:22:05.832Z,2.13
2023-11-10T16:24:34.367Z,2.13
2023-11-10T16:27:01.017Z,2.30
2023-11-10T16:29:27.720Z,2.23
2023-11-10T16:31:56.731Z,1.80
2023-11-10T16:34:26.767Z,2.50
2023-11-10T16:36:55.435Z,2.30
2023-11-10T16:39:22.423Z,2.30
2023-11-10T16:41:57.947Z,1.87
2023-11-10T16:44:25.625Z,2.40
2023-11-10T16:46:54.037Z,2.07
2023-11-10T16:49:26.902Z,2.00
2023-11-10T16:51:54.446Z,2.90
2023-11-10T16:54:21.367Z,2.13
2023-11-10T16:56:49.043Z,2.07
2023-11-10T16:59:15.984Z,2.50
2023-11-10T17:01:48.067Z,2.70
2023-11-10T17:04:15.131Z,2.40
2023-11-10T17:06:41.881Z,2.70
2023-11-10T17:09:08.585Z,2.30
2023-11-10T17:11:35.249Z,2.50
2023-11-10T17:14:04.621Z,2.60
2023-11-10T17:16:32.674Z,2.80
2023-11-10T17:18:59.468Z,2.13
2023-11-10T17:21:26.199Z,2.70
2023-11-10T17:23:52.915Z,3.30
2023-11-10T17:26:25.571Z,2.33
2023-11-10T17:28:53.051Z,2.30
2023-11-10T17:31:20.196Z,3.50
2023-11-10T17:33:52.640Z,2.67
2023-11-10T17:36:21.268Z,2.13
2023-11-10T17:38:48.043Z,2.50
2023-11-10T17:41:21.309Z,2.40
2023-11-10T17:43:50.400Z,2.47
2023-11-10T17:46:18.118Z,2.43
2023-11-10T17:48:53.482Z,2.07
2023-11-10T17:51:22.649Z,2.20
2023-11-10T17:53:49.356Z,2.07
2023-11-10T17:56:16.224Z,2.77
2023-11-10T17:58:50.192Z,2.30
2023-11-10T18:01:16.947Z,2.70
2023-11-10T18:03:46.529Z,2.50
2023-11-10T18:06:15.517Z,2.53
2023-11-10T18:08:45.228Z,2.33
2023-11-10T18:11:12.518Z,3.50
2023-11-10T18:13:42.197Z,2.30
2023-11-10T18:16:16.289Z,2.90
2023-11-10T18:18:46.918Z,3.17
2023-11-10T18:21:22.265Z,2.60
2023-11-10T18:23:52.280Z,2.53
2023-11-10T18:26:21.319Z,3.00
2023-11-10T18:28:48.349Z,3.20
2023-11-10T18:31:16.201Z,2.80
2023-11-10T18:33:46.113Z,3.10
2023-11-10T18:36:17.263Z,3.23
2023-11-10T18:38:47.012Z,3.20
2023-11-10T18:41:17.823Z,3.30
2023-11-10T18:43:47.088Z,2.90
2023-11-10T18:46:19.039Z,3.40
2023-11-10T18:48:49.123Z,3.90
2023-11-10T18:51:18.558Z,3.90
2023-11-10T18:53:48.245Z,4.40
2023-11-10T18:56:20.362Z,4.03
2023-11-10T18:58:47.139Z,3.83
2023-11-10T19:01:21.189Z,3.30
2023-11-10T19:03:48.025Z,4.27
2023-11-10T19:06:18.915Z,3.50
2023-11-10T19:08:53.740Z,3.90
2023-11-10T19:11:20.837Z,3.30
2023-11-10T19:13:50.846Z,3.60
2023-11-10T19:16:25.843Z,3.57
2023-11-10T19:18:52.668Z,4.00
2023-11-10T19:21:19.361Z,3.33
2023-11-10T19:23:46.201Z,3.43
2023-11-10T19:26:15.773Z,3.60
2023-11-10T19:28:48.550Z,3.60
2023-11-10T19:31:24.995Z,4.57
2023-11-10T19:33:51.766Z,4.40
2023-11-10T19:36:20.783Z,3.87
2023-11-10T19:38:47.536Z,3.80
2023-11-10T19:41:21.569Z,3.87
2023-11-10T19:43:49.841Z,4.40
2023-11-10T19:46:16.864Z,3.70
2023-11-10T19:48:50.761Z,3.30
2023-11-10T19:56:25.266Z,3.07
2023-11-10T20:01:21.794Z,5.00
2023-11-10T20:03:48.461Z,3.70
2023-11-10T20:06:17.879Z,4.00
2023-11-10T20:08:47.054Z,3.73
2023-11-10T20:11:22.876Z,3.20
2023-11-10T20:13:51.327Z,3.30
2023-11-10T20:16:18.982Z,3.60
2023-11-10T20:18:49.811Z,3.93
2023-11-10T20:21:21.653Z,2.90
2023-11-10T20:23:49.173Z,2.77
2023-11-10T20:26:18.347Z,2.87
2023-11-10T20:28:47.953Z,2.60
2023-11-10T20:31:17.291Z,2.80
2023-11-10T20:33:46.824Z,3.00
2023-11-10T20:36:18.200Z,3.70
2023-11-10T20:38:47.333Z,3.30
2023-11-10T20:41:16.229Z,3.47
2023-11-10T20:43:42.906Z,3.00
2023-11-10T20:46:20.546Z,3.07
2023-11-10T20:48:50.609Z,2.60
2023-11-10T20:51:23.973Z,3.00
2023-11-10T20:53:51.064Z,2.80
2023-11-10T20:56:18.531Z,2.90
2023-11-10T20:58:54.124Z,2.83
2023-11-10T21:01:23.692Z,2.57
2023-11-10T21:04:01.772Z,2.70
2023-11-10T21:06:28.710Z,2.60
2023-11-10T21:08:56.048Z,3.10
2023-11-10T21:11:22.795Z,2.70
2023-11-10T21:13:57.437Z,2.90
2023-11-10T21:16:24.291Z,2.70
2023-11-10T21:18:51.123Z,2.90
2023-11-10T21:21:28.624Z,2.90
2023-11-10T21:23:55.876Z,2.80
2023-11-10T21:26:23.884Z,3.03
2023-11-10T21:28:58.894Z,2.90
2023-11-10T21:31:28.257Z,3.27
2023-11-10T21:33:55.532Z,2.67
2023-11-10T21:36:30.058Z,2.50
2023-11-10T21:38:57.089Z,2.80
2023-11-10T21:41:27.992Z,2.73
2023-11-10T21:43:59.046Z,3.00
2023-11-10T21:46:25.880Z,2.40
2023-11-10T21:48:52.722Z,2.90
2023-11-10T21:51:19.589Z,2.23
2023-11-10T21:53:48.831Z,2.50
2023-11-10T21:56:19.235Z,2.70
2023-11-10T21:58:49.617Z,2.50
2023-11-10T22:01:17.609Z,2.93
2023-11-10T22:03:47.112Z,2.43
2023-11-10T22:06:19.624Z,2.13
2023-11-10T22:08:49.136Z,2.57
2023-11-10T22:11:19.094Z,2.50
2023-11-10T22:13:48.377Z,2.60
2023-11-10T22:16:17.445Z,2.57
2023-11-10T22:18:53.249Z,2.47
2023-11-10T22:21:20.121Z,2.40
2023-11-10T22:23:46.850Z,2.70
2023-11-10T22:26:23.638Z,3.10
2023-11-10T22:28:50.499Z,2.80
2023-11-10T22:31:17.199Z,2.27
2023-11-10T22:33:51.065Z,2.50
2023-11-10T22:36:18.491Z,2.60
2023-11-10T22:38:47.566Z,2.47
2023-11-10T22:41:26.927Z,2.33
2023-11-10T22:43:53.774Z,2.53
2023-11-10T22:46:20.575Z,2.40
2023-11-10T22:48:49.509Z,2.30
2023-11-10T22:51:18.212Z,2.67
2023-11-10T22:53:47.561Z,2.30
2023-11-10T22:56:16.521Z,2.33
2023-11-10T22:58:50.622Z,2.93
2023-11-10T23:01:17.297Z,2.20
2023-11-10T23:03:46.737Z,2.80
2023-11-10T23:06:15.550Z,2.23
2023-11-10T23:08:47.725Z,2.50
2023-11-10T23:11:17.674Z,2.17
2023-11-10T23:13:50.334Z,2.00
2023-11-10T23:16:17.204Z,2.50
2023-11-10T23:18:45.522Z,2.30
2023-11-10T23:21:17.433Z,2.57
2023-11-10T23:23:45.392Z,2.33
2023-11-10T23:26:12.926Z,1.90
2023-11-10T23:28:39.926Z,2.67
2023-11-10T23:31:06.871Z,2.20
2023-11-10T23:33:33.773Z,2.23
2023-11-10T23:36:02.933Z,3.13
2023-11-10T23:38:29.812Z,2.67
2023-11-10T23:40:57.878Z,2.30
2023-11-10T23:43:24.891Z,2.80
2023-11-10T23:45:51.684Z,2.40
2023-11-10T23:48:21.908Z,2.30
2023-11-10T23:50:48.788Z,2.47
2023-11-10T23:53:16.733Z,2.27
2023-11-10T23:55:49.992Z,2.70
2023-11-10T23:58:16.866Z,2.40
